Classement Brevet 65km

PHOTOS VIDEO

Merci a Fabrice pour la super vidéo !

254 Chronos-872 Randos

Dames 65KM

Nom Prénom Temps Moyenne Numéro
1 ACHTEN KRISTIEN 3:21:27 AM 19,36 355
2 ORTHMANS KITTY 4:16:47 AM 15,19 436
3 VAN ROMPAY ELNE 4:33:17 AM 14,27 341
4 WILLEMS TANJA 4:44:24 AM 13,71 268
5 BOGAERT TANIA 6:13:43 AM 10,44 235
6 VANDEVELDE ERLING 6:48:45 AM 9,54 230
7 STALMANS CARLA     384
8 FRANSSENS GRIET     245

Juniors 65km

Nom Prénom Temps Moyenne Numéro
1 PASTEGER LOIC 3:13:45 AM 20,13 286
2 CRIJNS MICHIEL 4:03:22 AM 16,03 418
3 STEEGMANS EINAR 4:18:33 AM 15,08 412
4 BOUSSON MAXIME 4:28:44 AM 14,51 381
5 TRUYMAN ANTOINE     325

Seniors 65km

Nom Prénom Temps Moyenne O2MC Numéro
1 SHOLTES BRICE 2:55:59 AM 22,16   452
2 DE WOLF KEVIN 2:59:42 AM 21,7   342
3 KLEIJNEN CYRIL 3:00:53 AM 21,56   407
4 LOUIS DENIEL 3:01:12 AM 21,52   293
5 DELHASSE CHRISTOPHE 3:01:20 AM 21,51   261
6 SMETH MATHIAS 3:02:23 AM 21,38   354
7 MARTIN BAPTISTE 3:05:35 AM 21,01   296
8 SHOLTES Maxime 3:08:03 AM 20,74   451
9 LICKI CEDRIC 3:11:45 AM 20,34   274
10 VERHEES RUBEN 3:15:05 AM 19,99   314
11 DE VOOGHT BEN 3:16:21 AM 19,86 15342 343
12 PATRIS LOUIS 3:17:55 AM 19,71   392
13 PETERS MAIKEL 3:18:02 AM 19,69   240
14 ACHTEN KRISTIEN 3:21:27 AM 19,36   355
15 VANDERTHOMMEN AXEL 3:21:43 AM 19,33 15054 338
16 WUYTS YENTL 3:24:10 AM 19,1   211
17 GAUTHIER BENOIT 3:26:53 AM 18,85 15047 231
18 DE GELISSEN KENNETH 3:30:06 AM 18,56   376
19 MOMMEN KIERA 3:33:24 AM 18,28 15230 287
20 LARDINOIS ROBIN 3:35:07 AM 18,13   426
21 VAN DRIESSCHE DIETER 3:35:21 AM 18,11   323
22 LEDENT NICOLAS 3:39:44 AM 17,75   301
23 MICHOTTE AURELIEN 3:39:51 AM 17,74   292
24 GILLES AMAURY 3:44:01 AM 17,41   347
25 VERVECKEN XAVIER 3:44:57 AM 17,34   304
26 DE PUYSSILEYR JOHNNY 3:49:48 AM 16,97   350
27 SEINE ODILON 3:50:54 AM 16,89   358
28 VRANCKX BART 4:03:48 AM 16,   222
29 BREVER SIMON 4:03:50 AM 15,99   224
30 VERBERCKMOES CHRISTOPE 4:04:16 AM 15,97   364
31 NIUSMANS NICK 4:04:37 AM 15,94   310
32 WILMOTTE ADRIEN 4:08:35 AM 15,69   302
33 BEBELMAN SIMON 4:10:54 AM 15,54   221
43 RAES BART 4:18:25 AM 15,09   307
35 VAES PIETER 4:25:14 AM 14,7   294
36 SMETS SVEN 4:25:46 AM 14,67   447
37 SCAFS MAXENCE 4:27:18 AM 14,59   379
38 VAN ROMPAY ELNE 4:33:17 AM 14,27   341
39 RENS DRIES 4:41:59 AM 13,83   357
40 STAES SEBASTIAAN 4:42:00 AM 13,83   356
41 ROUSSEAU FILIP 4:54:20 AM 13,25   433
42 HENDRICK WIM 4:54:21 AM 13,25   434
43 DE SMET JOREN 5:05:56 AM 12,75   416
44 MEGANCK KRISTOF 5:05:57 AM 12,75   415
45 DE NEVE KENNETH 5:06:10 AM 12,74   419
46 BAEL WOUTER 5:07:14 AM 12,69   417
47 BRUNNPONCKX ROB       359
48 FRANSSENS GRIET       245
49 PEETERS NICK       249
50 HEYLEN WILIEM       270
51 VANPOL NICK       353
52 DENNIS DENNIS       324
53 MAGIELSE THOMAS       328
54 DEWINTER SVEN       375

 

Masters 69km

Nom Prénom Temps Moyenne O2MC Numéro
1 WILLEMS GUNTER 2:48:05 AM 23,2   423
2 WATERVAL CLAUDE 2:51:30 AM 22,74   326
3 BYNENS DAMIEN 2:56:24 AM 22,11   430
4 WARNOTTE JORDAN 2:57:22 AM 21,99   398
5 BLUEKENS JAN 2:57:55 AM 21,92   234
6 VAN HUL STEFAN 2:58:54 AM 21,8 15402 348
7 BASTIN JEAN 2:59:06 AM 21,78   344
8 DESCHEEMAEKER STEVEN 2:59:58 AM 21,67   289
9 SLECHTEN JOHAN 3:01:04 AM 21,54   427
10 RENSON PIERRE 3:03:26 AM 21,26   408
11 HUIJMEN RONNY 3:05:17 AM 21,05   300
12 WILLEMS JAN 3:07:10 AM 20,84   317
13 MOESEN JAN 3:08:34 AM 20,68   429
14 ALOFS JEAN-MARIE 3:09:19 AM 20,6 15051 208
15 RAES DAVE 3:11:48 AM 20,33   399
16 RIETDIJK DENNIS 3:14:14 AM 20,08   335
17 BRONWERS RENE 3:14:33 AM 20,05   402
18 DUBOIS NICOLAS 3:15:11 AM 19,98   365
19 SMETS CEDRIC 3:15:57 AM 19,9   212
20 BASTIN SIMON 3:16:39 AM 19,83   241
21 LOUPPE VINCENT 3:17:31 AM 19,75   275
22 VANELDEREN DANNY 3:19:43 AM 19,53   397
23 FOHNEN DAVID 3:22:22 AM 19,27   336
24 VAN REUSEL PAUL 3:23:25 AM 19,17   244
25 STERCKX JAN 3:24:17 AM 19,09   269
26 JEURISSEN GEERT 3:25:35 AM 18,97   440
27 DECHAMPS JACKY 3:25:46 AM 18,95   206
28 VANSTREELS TOM 3:25:56 AM 18,94   272
29 VANDERTHOMMEN DANIEL 3:26:05 AM 18,92 15053 337
30 LAENEN DAVID 3:26:45 AM 18,86   385
31 STOCKX DIETER 3:27:01 AM 18,84   339
32 GOEDERTIER FRANK 3:27:07 AM 18,83 15285 227
33 GILLET NICOLAS 3:27:35 AM 18,79   263
34 VERHAEGEN KURT 3:30:10 AM 18,56   424
35 STEFANI JOERI 3:30:15 AM 18,55   377
36 VAN KERCHONE DANNY 3:30:57 AM 18,49   351
37 VOORBY JEROEN 3:31:15 AM 18,46   405
38 VANLOFFELD RONNY 3:33:55 AM 18,23   394
39 PREVOT VINCENT 3:34:04 AM 18,22   333
40 WILLEMSEN RICHARD 3:34:15 AM 18,2   334
41 JOFEERMANS JEFFRY 3:34:19 AM 18,2   277
42 STUYCK JAN 3:34:56 AM 18,15   329
43 CORTHOUTS BENNY 3:34:58 AM 18,14   425
44 JALNERS WILFRIED 3:35:11 AM 18,12   276
45 VAN HOVE PETER 3:36:14 AM 18,04   262
46 THOMAS ARNAUD 3:36:37 AM 18,   216
47 SCHEPERS TOM 3:37:10 AM 17,96   438
48 MULKENS MIKE 3:37:13 AM 17,95   315
49 DEBUYNE BART 3:37:21 AM 17,94   232
50 MAMOU DAVID 3:37:39 AM 17,92 15007 320
51 CORVILAIN OLIVIER 3:37:55 AM 17,9 15057 279
52 NEUDOURU MICHAEL 3:38:10 AM 17,88   254
53 LOMBAERTS AXEL 3:38:19 AM 17,86   252
54 SHOLTES Christian 3:39:48 AM 17,74   450
55 RAEDSCAELDERS JEF 3:39:51 AM 17,74   316
56 VAN AELBROECK LUC 3:40:19 AM 17,7   361
57 KANTOR RONNY 3:40:33 AM 17,68   428
58 LERUSSE PHILIPPE 3:40:54 AM 17,66   404
59 VAN HOUT BART 3:41:50 AM 17,58   431
60 DUMONT DOMINIQUE 3:42:25 AM 17,53   303
61 WILLEMS STEFAN 3:42:28 AM 17,53   299
62 SANBERG BAS 3:43:19 AM 17,46 15446 406
63 PAELINCKX PATRICK 3:43:33 AM 17,45 15298 260
64 OELBRANDT JURGEN 3:43:58 AM 17,41 22623 367
65 BEKKER STEVEN 3:44:19 AM 17,39   223
66 DE BUSSCHERE DAUE 3:45:11 AM 17,32 15270 228
67 GALLE DANIEL 3:45:54 AM 17,26   366
68 VAN DE WEYER ROCCO 3:46:25 AM 17,22   322
69 WILLEMS LUC 3:46:29 AM 17,22   278
70 JANISSEN MARK 3:47:07 AM 17,17   207
71 GOSSELIN DANNY 3:49:14 AM 17,01   257
72 VAN GORP GUY 3:49:18 AM 17,01   251
73 VERMONDEN MARC 3:49:19 AM 17,01   243
74 DUPONT GEERT 3:49:27 AM 17,   250
75 HEYTENS WOUTEN 3:50:05 AM 16,95   410
76 VAN RIET NIKOLAAS 3:50:17 AM 16,94   409
77 DIUITA FREDERIC 3:51:38 AM 16,84 15201 383
78 PEERLINYS PASCAL 3:53:52 AM 16,68   413
79 HANNES BOB 3:55:34 AM 16,56   389
80 BUDTILSTRA SJOERD 3:55:35 AM 16,55   395
81 DILISSEN RAF 3:55:35 AM 16,55   382
82 NOKKIN XAVIER 3:56:01 AM 16,52   444
83 ROES DANNY 3:56:21 AM 16,5   219
84 DANEELS WERNER 3:56:21 AM 16,5   218
85 SMEYERS LUC 3:56:22 AM 16,5   217
86 DELAERE REINOUD 3:56:23 AM 16,5   363
87 DUSSELDORP WIM 3:57:47 AM 16,4   396
88 INNESTEGE PATRICK 3:58:55 AM 16,32   233
89 SIEBERS JEREMY 3:59:37 AM 16,28   432
90 ACHEPENS LOCHAN 4:01:27 AM 16,15 15251 414
91 VANDERHEYDEN MARC 4:01:33 AM 16,15   298
92 KAES GEERT 4:01:36 AM 16,14   288
93 BUELENS JOHAN 4:02:51 AM 16,06 15181 220
94 STERCKX MAARTEN 4:03:26 AM 16,02   443
95 CLAEYS WIM 4:03:32 AM 16,01   388
96 DAEMS JOHNY 4:03:38 AM 16,01   321
97 ACOU IEF 4:03:41 AM 16,   311
98 FACCENDA FABRICE 4:05:32 AM 15,88   242
99 CLOSEMANS ERIK 4:07:16 AM 15,77   411
100 GEETS JEAN-MICHEL 4:08:28 AM 15,7   266
101 VAN ZUMMEREN RUDY 4:10:59 AM 15,54   267
102 WIELANDT GUNTHER 4:12:00 AM 15,48   378
103 OUDERMANS THIERRI 4:13:15 AM 15,4   213
104 PETERS FREDDY 4:13:46 AM 15,37   291
105 JILESEN PETER 4:13:47 AM 15,37   290
106 DE LA FUENTE RAFAEL 4:14:10 AM 15,34   271
107 VANDEWIEL PIET 4:16:15 AM 15,22   264
108 MEXLEMONS PHILIPPE 4:16:23 AM 15,21   393
109 ORTHMANS KITTY 4:16:47 AM 15,19   436
110 VERZEELE JO 4:17:11 AM 15,16   437
111 LEGARDEUR HUGUES 4:17:46 AM 15,13   238
112 DOM WIM 4:18:13 AM 15,1   306
113 RAES ANDRE 4:18:29 AM 15,09   308
114 DONKERS PASCAL 4:18:33 AM 15,08   309
115 VAN DEN BERGH DANNY 4:18:34 AM 15,08   313
116 LENAERTS KOEN 4:19:52 AM 15,01 15213 346
117 GOOSSENS PETER 4:19:54 AM 15,01   362
118 JANS RONNIE 4:20:19 AM 14,98   255
119 UYTTEBROEK WIM 4:21:49 AM 14,9   352
120 PERSOONS HENK 4:23:20 AM 14,81   345
121 GOETHALS ALAIN 4:23:35 AM 14,8   349
122 POLACHOWSKI STEFAN 4:25:00 AM 14,72   422
123 WEYNANTS BIRGER 4:25:46 AM 14,67   448
124 SWINNEN DAVY 4:26:25 AM 14,64   295
125 FRANCKEN JOEL 4:27:29 AM 14,58   297
126 DEFOUR DAVID 4:29:39 AM 14,46   318
127 FOURMENTIN ERIC 4:34:27 AM 14,21   281
128 ROUCHE MICHAEL 4:35:05 AM 14,18   239
129 PETERS ANDRE 4:35:32 AM 14,15   280
130 VAN BEERS GERARD 4:36:43 AM 14,09   391
131 GUIDO MASSIMO 4:39:00 AM 13,98   226
132 STERKENDRIES STEPHANE 4:41:23 AM 13,86   214
133 CHRISTAENS JOHAN 4:41:45 AM 13,84   439
134 RONDEUR ERIC 4:42:40 AM 13,8   340
135 WILLEMS TANJA 4:44:24 AM 13,71   268
136 PAERMENTIER KRIS 4:45:23 AM 13,67   421
137 EECKHONT DAVID 4:45:32 AM 13,66 1201 420
138 LEMAIRE DAVID 4:47:05 AM 13,58   332
139 LEMAIRE PASCAL 4:47:12 AM 13,58   331
140 PEETERS PATRICK 4:47:15 AM 13,58   390
141 KLINKENBERG JOHN 4:50:12 AM 13,44   258
142 RENIMEL PHILIPPE 4:53:04 AM 13,31 15633 215
143 GAUTY MARC 4:53:13 AM 13,3   210
144 VIERSET MICHAEL 4:53:30 AM 13,29   445
145 FEIHLE XAVIER 5:11:13 AM 12,53   435
146 SCHEPERS WILLY 5:15:36 AM 12,36   327
147 GERAERTS BERT 5:53:01 AM 11,05   369
148 KAES HENK 5:53:11 AM 11,04   370
149 GEUSENS LIEVEN 5:53:33 AM 11,03   371
150 WYNANTS LUC 5:55:17 AM 10,98   372
151 BOGAERT TANIA 6:13:43 AM 10,44   235
152 VANDEVELDE ERLING 6:48:45 AM 9,54   230
153 WILLEMS CHANTAL 6:49:02 AM 9,53   229
154 CHARETTE ERIC       225
155 VAN LO JOHAN       449
156 CORNELIS JOS       446
157 VINCK ALAIN       209
158 VAN BUYNDER KRIS       380
159 STALMANS CARLA       384
160 VANRUSSELT JO       330
161 ZWIJSEN JAN       373
162 BONGERS MAARTEN       442
163 URSI STIJN       374
164 DUFRAING PETER       312
165 LAEVERS KEVIN       386
166 SCHEPERS BERT       248
167 BOECKX GEERT       273
168 HACKIN STEPHANE       265
169 DUPLACIE BRECHT       368
170 MARTENS KURT     15375 259
171 AERTGEERTS JOHAN       282
172 PHILIPPETM JEROEN       256
173 VAN ROMPAEY TIM       283
174 JANSSENS KURT       253
175 VAN VERCKHOLEN THOMAS     15304 236
176 GEENEN GILLES       360
177 MAZZARISI BORIS       319
178 JEURISSEN JOS       247
179 FRANSSENS PAUL       246
180 BORLEE PIERRE       285
181 GYSEC RENE       403
182 DECUBBER KOEN       401
183 SCHODTS TIM       400
184 BERTRAND BERNARD     15425 305
185 VAN OS M       237
186 BONNE KRIS       441
187 VAN PASSEL JEROEN       284